Time;durP1;ratioP1;P1;durP2;ratioP2;P2;SDS_P1;SDS_P2;PMS_P1;PMS_P2;Temp;Humidity;BMP_temperature;BMP_pressure;BME280_temperature;BME280_humidity;BME280_pressure;Samples;Min_cycle;Max_cycle;Signal;HPM_P1;HPM_P2
2023/07/08 00:00:53;;;;;;;;;7.00;7.00;;;;;25.66;40.47;100766.75;4920989;28;45274;-50
2023/07/08 00:03:20;;;;;;;;;8.25;5.25;;;;;25.63;40.20;100766.00;4921271;28;45423;-47
2023/07/08 00:05:46;;;;;;;;;7.75;7.25;;;;;25.64;40.80;100769.53;4921034;28;45523;-48
2023/07/08 00:08:20;;;;;;;;;7.50;7.00;;;;;25.63;40.67;100768.66;4921078;28;45401;-51
2023/07/08 00:10:47;;;;;;;;;8.00;7.00;;;;;25.62;40.18;100785.59;4921142;28;45316;-50
2023/07/08 00:13:12;;;;;;;;;5.25;5.25;;;;;25.65;40.09;100786.28;4921083;28;45334;-48
2023/07/08 00:15:39;;;;;;;;;9.25;9.00;;;;;25.65;40.45;100788.94;4919795;28;66155;-50
2023/07/08 00:18:14;;;;;;;;;8.00;8.00;;;;;25.63;40.61;100789.91;4920614;28;45718;-49
2023/07/08 00:20:44;;;;;;;;;7.00;7.00;;;;;25.64;40.09;100790.75;4920708;28;45350;-49
2023/07/08 00:23:10;;;;;;;;;7.00;6.00;;;;;25.62;40.63;100782.94;4920753;28;45326;-49
2023/07/08 00:25:36;;;;;;;;;8.25;8.25;;;;;25.61;40.42;100791.00;4920269;28;46235;-49
2023/07/08 00:28:01;;;;;;;;;6.50;6.50;;;;;25.62;40.46;100788.22;4935044;28;45295;-46
2023/07/08 00:30:30;;;;;;;;;7.50;7.50;;;;;25.62;40.19;100790.88;4920525;28;45419;-47
2023/07/08 00:32:57;;;;;;;;;7.25;7.00;;;;;25.62;40.26;100790.03;4920376;28;45496;-49
2023/07/08 00:35:51;;;;;;;;;12.00;10.25;;;;;25.62;40.16;100793.53;4920007;28;46796;-45
2023/07/08 00:38:29;;;;;;;;;10.25;8.75;;;;;25.63;40.50;100799.69;4920014;28;45828;-51
2023/07/08 00:40:57;;;;;;;;;10.00;10.00;;;;;25.62;40.48;100817.44;4920310;28;45280;-49
2023/07/08 00:43:30;;;;;;;;;7.50;6.75;;;;;25.62;40.35;100814.78;4920456;28;45389;-49
2023/07/08 00:46:15;;;;;;;;;7.75;6.00;;;;;25.62;40.20;100820.09;4920249;28;46221;-50
2023/07/08 00:48:41;;;;;;;;;9.00;9.00;;;;;25.63;40.14;100807.66;4920130;28;45274;-50
2023/07/08 00:51:10;;;;;;;;;9.00;8.25;;;;;25.61;40.75;100809.56;4920241;28;45449;-47
2023/07/08 00:53:37;;;;;;;;;9.50;8.50;;;;;25.60;40.67;100811.38;4920356;28;45264;-48
2023/07/08 00:56:12;;;;;;;;;8.25;5.50;;;;;25.62;40.68;100803.28;4919892;28;46619;-47
2023/07/08 00:58:45;;;;;;;;;8.75;5.75;;;;;25.61;40.26;100791.84;4919944;28;45378;-50
2023/07/08 01:01:11;;;;;;;;;8.25;7.50;;;;;25.62;40.89;100805.94;4919855;28;45458;-46
2023/07/08 01:03:45;;;;;;;;;9.00;7.00;;;;;25.61;40.32;100802.47;4918925;28;45502;-51
2023/07/08 01:06:11;;;;;;;;;10.75;7.25;;;;;25.61;40.30;100802.47;4920002;28;46370;-50
2023/07/08 01:08:36;;;;;;;;;9.00;7.50;;;;;25.61;40.27;100791.00;4919828;28;45509;-52
2023/07/08 01:11:04;;;;;;;;;14.50;8.00;;;;;25.62;40.20;100798.84;4919986;28;45334;-49
2023/07/08 01:13:39;;;;;;;;;9.00;8.25;;;;;25.61;40.63;100815.75;4920180;28;45249;-48
2023/07/08 01:16:09;;;;;;;;;10.00;9.25;;;;;25.63;40.25;100819.09;4919517;28;46388;-48
2023/07/08 01:18:34;;;;;;;;;9.25;7.00;;;;;25.62;40.63;100825.41;4919950;28;45647;-45
2023/07/08 01:21:06;;;;;;;;;10.50;8.75;;;;;25.61;40.20;100818.38;4919899;28;45477;-48
2023/07/08 01:23:32;;;;;;;;;9.75;6.50;;;;;25.61;40.57;100807.78;4918705;28;45404;-44
2023/07/08 01:26:00;;;;;;;;;7.00;7.00;;;;;25.60;40.86;100806.09;4919483;28;45380;-47
2023/07/08 01:28:27;;;;;;;;;8.50;8.00;;;;;25.60;40.47;100791.94;4919425;28;45936;-46
2023/07/08 01:30:53;;;;;;;;;11.00;9.00;;;;;25.61;40.32;100807.78;4919627;28;45385;-46
2023/07/08 01:33:21;;;;;;;;;9.75;7.00;;;;;25.61;40.34;100809.56;4919497;28;55662;-48
2023/07/08 01:35:49;;;;;;;;;9.25;8.00;;;;;25.60;40.18;100811.38;4919427;28;46262;-45
2023/07/08 01:38:21;;;;;;;;;8.50;7.00;;;;;25.60;40.37;100806.09;4919361;28;45295;-48
2023/07/08 01:40:56;;;;;;;;;9.25;8.00;;;;;25.60;40.72;100814.03;4919551;28;45235;-44
2023/07/08 01:43:21;;;;;;;;;9.25;8.25;;;;;25.60;40.65;100821.16;4919750;28;45485;-51
2023/07/08 01:45:48;;;;;;;;;9.00;8.00;;;;;25.61;40.68;100858.19;4918049;28;46392;-47
2023/07/08 01:48:17;;;;;;;;;9.50;8.75;;;;;25.61;40.77;100915.72;4919308;28;45247;-49
2023/07/08 01:50:50;;;;;;;;;10.00;8.50;;;;;25.60;41.01;100946.75;4919294;28;45453;-48
2023/07/08 01:53:22;;;;;;;;;13.00;7.25;;;;;25.60;40.76;100930.81;4934263;28;45602;-49
2023/07/08 01:55:47;;;;;;;;;7.00;7.00;;;;;25.60;40.51;100940.56;4919246;28;45608;-52
2023/07/08 01:58:12;;;;;;;;;8.50;8.00;;;;;25.59;41.10;100937.09;4933930;28;45272;-52
2023/07/08 02:00:38;;;;;;;;;6.75;6.75;;;;;25.60;40.88;100944.09;4919323;28;45304;-52
2023/07/08 02:03:03;;;;;;;;;8.25;8.25;;;;;25.60;40.78;100941.44;4919461;28;45220;-49
2023/07/08 02:05:29;;;;;;;;;9.25;8.25;;;;;25.59;40.57;100937.09;4933859;28;45519;-49
2023/07/08 02:07:55;;;;;;;;;8.50;7.75;;;;;25.60;40.61;100946.75;4919159;28;45583;-40
2023/07/08 02:10:20;;;;;;;;;8.50;8.50;;;;;25.59;40.52;100946.84;4918029;28;45402;-47
2023/07/08 02:12:46;;;;;;;;;7.75;7.75;;;;;25.59;40.93;100955.66;4919301;28;45377;-49
2023/07/08 02:15:11;;;;;;;;;9.67;9.67;;;;;25.60;40.77;100949.41;4918084;28;67836;-48
2023/07/08 02:17:36;;;;;;;;;10.75;9.75;;;;;25.57;40.92;100949.63;4917645;28;45480;-50
2023/07/08 02:20:03;;;;;;;;;11.25;10.00;;;;;25.59;40.94;100944.19;4919054;28;45270;-48
2023/07/08 02:22:28;;;;;;;;;12.50;8.50;;;;;25.58;41.02;100938.03;4919029;28;45636;-47
2023/07/08 02:24:53;;;;;;;;;9.25;8.50;;;;;25.60;41.07;100932.59;4918534;28;58879;-50
2023/07/08 02:27:19;;;;;;;;;10.50;6.25;;;;;25.59;40.95;100926.47;4918633;28;45368;-45
2023/07/08 02:29:44;;;;;;;;;9.00;7.75;;;;;25.60;41.24;100924.66;4918491;28;50513;-49
2023/07/08 02:32:09;;;;;;;;;8.00;7.00;;;;;25.59;41.98;100921.16;4919001;28;45342;-48
2023/07/08 02:34:36;;;;;;;;;6.50;5.00;;;;;25.59;41.77;100913.19;4918496;28;46838;-48
2023/07/08 02:37:01;;;;;;;;;8.25;6.00;;;;;25.58;42.20;100903.53;4918686;28;45703;-48
2023/07/08 02:39:27;;;;;;;;;7.00;6.00;;;;;25.59;41.76;100915.84;4918954;28;45767;-45
2023/07/08 02:41:52;;;;;;;;;5.75;5.75;;;;;25.59;42.19;100902.59;4933943;28;45239;-48
2023/07/08 02:44:17;;;;;;;;;4.75;4.00;;;;;25.57;42.20;100896.53;4918677;28;45456;-50
2023/07/08 02:46:42;;;;;;;;;6.33;4.67;;;;;25.57;42.31;100896.53;4932492;28;65067;-50
2023/07/08 02:49:08;;;;;;;;;7.00;6.00;;;;;25.59;42.25;100894.63;4917990;28;59576;-46
2023/07/08 02:51:33;;;;;;;;;5.75;5.75;;;;;25.58;42.04;100892.94;4918247;28;50669;-45
2023/07/08 02:53:58;;;;;;;;;8.00;6.00;;;;;25.58;42.32;100882.31;4918344;28;46496;-46
2023/07/08 02:56:26;;;;;;;;;4.00;4.00;;;;;25.58;42.42;100879.66;4918612;28;58551;-43
2023/07/08 02:58:51;;;;;;;;;6.50;6.25;;;;;25.58;42.90;100866.38;4921807;28;45290;-42
2023/07/08 03:01:17;;;;;;;;;6.25;3.50;;;;;25.57;42.84;100870.00;4922120;28;46112;-44
2023/07/08 03:03:44;;;;;;;;;5.75;3.50;;;;;25.59;43.27;100873.38;4921691;28;46547;-43
2023/07/08 03:06:10;;;;;;;;;7.75;5.00;;;;;25.58;42.92;100874.34;4921619;28;45770;-48
2023/07/08 03:08:35;;;;;;;;;6.50;4.25;;;;;25.59;43.16;100868.09;4921593;28;45294;-52
2023/07/08 03:11:03;;;;;;;;;5.75;3.75;;;;;25.59;42.76;100865.44;4921944;28;45416;-46
2023/07/08 03:13:30;;;;;;;;;5.00;3.00;;;;;25.59;43.02;100867.22;4921504;28;46943;-42
2023/07/08 03:15:56;;;;;;;;;4.00;4.00;;;;;25.58;43.06;100870.84;4921931;28;45583;-42
2023/07/08 03:18:24;;;;;;;;;5.00;3.00;;;;;25.59;42.82;100862.78;4920450;28;45428;-45
2023/07/08 03:20:49;;;;;;;;;5.00;5.00;;;;;25.58;43.20;100853.13;4921437;28;45518;-47
2023/07/08 03:23:15;;;;;;;;;6.50;5.00;;;;;25.59;42.54;100856.59;4921272;28;46106;-42
2023/07/08 03:25:40;;;;;;;;;6.00;4.00;;;;;25.57;43.08;100858.56;4921160;28;45357;-47
2023/07/08 03:28:07;;;;;;;;;4.25;3.50;;;;;25.57;42.87;100859.38;4936251;28;45271;-47
2023/07/08 03:30:33;;;;;;;;;1.00;1.00;;;;;25.57;43.02;100856.72;4921505;28;45436;-47
2023/07/08 03:32:59;;;;;;;;;3.00;3.00;;;;;25.58;43.15;100849.59;4921478;28;46316;-50
2023/07/08 03:35:24;;;;;;;;;4.00;4.00;;;;;25.56;42.98;100841.78;4921504;28;45469;-49
2023/07/08 03:37:50;;;;;;;;;3.25;2.00;;;;;25.55;43.38;100833.94;4921266;28;45306;-51
2023/07/08 03:40:16;;;;;;;;;2.75;2.75;;;;;25.56;43.12;100836.47;4936131;28;45448;-44
2023/07/08 03:42:41;;;;;;;;;3.00;3.00;;;;;25.57;42.70;100829.38;4921022;28;46112;-46
2023/07/08 03:45:07;;;;;;;;;2.50;2.50;;;;;25.56;43.07;100825.03;4921100;28;45338;-47
2023/07/08 03:47:32;;;;;;;;;3.50;3.00;;;;;25.56;42.74;100820.53;4921154;28;45286;-50
2023/07/08 03:49:57;;;;;;;;;4.25;3.00;;;;;25.56;43.05;100817.06;4921378;28;45366;-47
2023/07/08 03:52:23;;;;;;;;;4.00;2.00;;;;;25.56;42.69;100794.00;4920944;28;45573;-48
2023/07/08 03:54:48;;;;;;;;;3.00;3.00;;;;;25.56;42.62;100791.34;4920947;28;45481;-45
2023/07/08 03:57:13;;;;;;;;;2.25;2.25;;;;;25.55;42.60;100779.03;4920944;28;45393;-49
2023/07/08 03:59:39;;;;;;;;;2.00;2.00;;;;;25.56;42.80;100775.44;4920851;28;48348;-51
2023/07/08 04:02:04;;;;;;;;;3.00;3.00;;;;;25.55;43.01;100775.56;4920762;28;45653;-48
2023/07/08 04:04:30;;;;;;;;;4.25;2.25;;;;;25.55;42.86;100771.06;4921060;28;45222;-47
2023/07/08 04:06:55;;;;;;;;;2.25;2.25;;;;;25.52;43.00;100763.34;4920948;28;45364;-42
2023/07/08 04:09:20;;;;;;;;;3.00;3.00;;;;;25.55;42.88;100765.78;4920046;28;45675;-43
2023/07/08 04:11:46;;;;;;;;;3.00;3.00;;;;;25.53;42.46;100757.09;4920557;28;46306;-48
2023/07/08 04:14:11;;;;;;;;;3.50;3.00;;;;;25.53;42.55;100751.78;4920468;28;49062;-47
2023/07/08 04:16:45;;;;;;;;;4.00;2.50;;;;;25.54;42.85;100750.81;4919457;28;45302;-48
2023/07/08 04:19:14;;;;;;;;;3.50;2.50;;;;;25.54;42.48;100756.13;4920798;28;45464;-48
2023/07/08 04:21:40;;;;;;;;;4.75;3.00;;;;;25.54;43.00;100749.97;4920442;28;45437;-48
2023/07/08 04:24:05;;;;;;;;;1.75;1.75;;;;;25.55;42.53;100749.03;4920500;28;45392;-47
2023/07/08 04:26:35;;;;;;;;;3.00;2.00;;;;;25.54;42.38;100753.47;4921097;28;45357;-48
2023/07/08 04:29:01;;;;;;;;;3.00;3.00;;;;;25.54;42.46;100769.38;4921168;28;45544;-51
2023/07/08 04:31:27;;;;;;;;;2.00;2.00;;;;;25.54;43.06;100773.88;4920454;28;46630;-50
2023/07/08 04:33:52;;;;;;;;;2.75;2.75;;;;;25.55;42.92;100775.56;4920414;28;45248;-48
2023/07/08 04:36:19;;;;;;;;;3.25;2.25;;;;;25.54;42.37;100780.00;4920645;28;45748;-51
2023/07/08 04:38:46;;;;;;;;;4.25;2.00;;;;;25.54;43.01;100787.97;4920689;28;45425;-49
2023/07/08 04:41:13;;;;;;;;;2.75;2.00;;;;;25.54;42.36;100805.72;4920373;28;45441;-54
2023/07/08 04:43:38;;;;;;;;;2.00;2.00;;;;;25.55;42.88;100808.22;4920210;28;45326;-51
2023/07/08 04:46:18;;;;;;;;;3.25;2.00;;;;;25.54;42.74;100806.53;4920406;28;45243;-44
2023/07/08 04:48:43;;;;;;;;;2.25;2.25;;;;;25.54;42.62;100811.00;4920499;28;45295;-46
2023/07/08 04:51:08;;;;;;;;;3.25;2.00;;;;;25.52;42.96;100805.81;4920134;28;51261;-46
2023/07/08 04:53:34;;;;;;;;;2.00;2.00;;;;;25.55;42.69;100818.03;4920381;28;45343;-46
2023/07/08 04:55:59;;;;;;;;;2.50;2.00;;;;;25.54;43.08;100825.13;4934734;28;57338;-44
2023/07/08 04:58:24;;;;;;;;;2.75;2.75;;;;;25.54;42.43;100818.97;4920346;28;45597;-46
2023/07/08 05:00:50;;;;;;;;;4.50;2.25;;;;;25.55;42.56;100826.81;4919479;28;52100;-47
2023/07/08 05:03:15;;;;;;;;;3.25;3.25;;;;;25.54;42.87;100837.56;4919993;28;45297;-49
2023/07/08 05:05:41;;;;;;;;;4.25;3.50;;;;;25.55;42.90;100840.06;4920037;28;45407;-51
2023/07/08 05:08:07;;;;;;;;;4.00;1.00;;;;;25.55;42.81;100850.69;4918721;28;45633;-50
2023/07/08 05:10:32;;;;;;;;;2.50;2.50;;;;;25.56;42.66;100848.91;4918654;28;47534;-49
2023/07/08 05:12:58;;;;;;;;;3.00;3.00;;;;;25.56;42.46;100849.72;4919797;28;45316;-48
2023/07/08 05:15:23;;;;;;;;;3.00;1.50;;;;;25.56;42.43;100848.91;4919668;28;45494;-48
2023/07/08 05:17:51;;;;;;;;;1.50;1.50;;;;;25.56;42.69;100844.44;4919909;28;45436;-47
2023/07/08 05:20:18;;;;;;;;;4.00;3.00;;;;;25.56;42.57;100838.28;4934109;28;47069;-51
2023/07/08 05:22:44;;;;;;;;;2.00;2.00;;;;;25.56;42.88;100840.94;4919607;28;45783;-47
2023/07/08 05:25:11;;;;;;;;;3.00;2.00;;;;;25.56;42.33;100848.91;4918279;28;45484;-45
2023/07/08 05:27:37;;;;;;;;;2.75;2.00;;;;;25.55;42.34;100863.97;4919995;28;45544;-48
2023/07/08 05:30:04;;;;;;;;;2.75;1.25;;;;;25.55;42.97;100876.41;4919528;28;46475;-49
2023/07/08 05:32:29;;;;;;;;;4.00;3.00;;;;;25.56;42.53;100908.13;4919383;28;45381;-49
2023/07/08 05:34:55;;;;;;;;;3.50;3.50;;;;;25.56;43.03;100904.63;4919636;28;45376;-48
2023/07/08 05:37:24;;;;;;;;;2.00;2.00;;;;;25.56;42.80;100905.47;4919667;28;45633;-51
2023/07/08 05:39:50;;;;;;;;;3.25;2.00;;;;;25.54;42.99;100896.75;4918733;28;45475;-50
2023/07/08 05:42:16;;;;;;;;;2.00;2.00;;;;;25.55;43.20;100903.78;4919194;28;45364;-51
2023/07/08 05:44:41;;;;;;;;;2.00;2.00;;;;;25.51;43.00;100907.63;4919507;28;45784;-49
2023/07/08 05:47:06;;;;;;;;;4.00;3.00;;;;;25.53;42.99;100916.31;4919385;28;52664;-46
2023/07/08 05:49:32;;;;;;;;;4.50;3.00;;;;;25.54;42.70;100925.13;4919182;28;45501;-51
2023/07/08 05:51:57;;;;;;;;;3.00;3.00;;;;;25.53;43.36;100926.91;4919267;28;45500;-48
2023/07/08 05:54:22;;;;;;;;;4.00;3.00;;;;;25.52;43.34;100927.03;4919511;28;45493;-48
2023/07/08 05:56:48;;;;;;;;;3.00;3.00;;;;;25.54;43.54;100933.09;4933987;28;45601;-49
2023/07/08 05:59:13;;;;;;;;;4.00;2.00;;;;;25.53;43.65;100929.56;4918895;28;45631;-51
2023/07/08 06:01:38;;;;;;;;;2.00;2.00;;;;;25.52;43.81;100932.34;4919135;28;45340;-49
2023/07/08 06:04:04;;;;;;;;;3.75;3.00;;;;;25.51;43.56;100939.47;4919561;28;45369;-52
2023/07/08 06:06:29;;;;;;;;;4.50;3.00;;;;;25.54;43.83;100949.84;4919462;28;45560;-52
2023/07/08 06:08:55;;;;;;;;;3.00;3.00;;;;;25.55;43.80;100959.50;4918854;28;46375;-50
2023/07/08 06:11:21;;;;;;;;;4.00;3.00;;;;;25.56;43.88;100961.19;4918975;28;45224;-49
2023/07/08 06:13:47;;;;;;;;;5.00;3.00;;;;;25.54;43.70;100973.72;4919103;28;45406;-46
2023/07/08 06:16:12;;;;;;;;;2.75;2.75;;;;;25.56;43.47;100979.78;4919319;28;45611;-47
2023/07/08 06:18:38;;;;;;;;;4.00;4.00;;;;;25.56;43.87;100985.09;4919223;28;45468;-45
2023/07/08 06:21:03;;;;;;;;;4.50;3.25;;;;;25.56;43.68;100998.34;4918870;28;45369;-44
2023/07/08 06:23:29;;;;;;;;;2.00;2.00;;;;;25.57;44.08;100988.59;4919206;28;45373;-46
2023/07/08 06:25:55;;;;;;;;;2.50;2.00;;;;;25.58;43.34;100991.13;4919143;28;45401;-45
2023/07/08 06:28:21;;;;;;;;;2.00;2.00;;;;;25.58;43.40;100999.09;4918628;28;46605;-48
2023/07/08 06:30:47;;;;;;;;;2.25;2.25;;;;;25.59;43.68;101008.75;4918810;28;45314;-46
2023/07/08 06:33:13;;;;;;;;;3.50;3.25;;;;;25.60;43.57;101001.63;4921249;28;45419;-44
2023/07/08 06:35:39;;;;;;;;;2.00;2.00;;;;;25.61;43.75;101004.19;4922799;28;45540;-42
2023/07/08 06:38:06;;;;;;;;;3.00;3.00;;;;;25.60;43.60;101010.44;4922023;28;46914;-44
2023/07/08 06:40:32;;;;;;;;;4.50;3.00;;;;;25.59;43.43;101002.56;4922165;28;45240;-43
2023/07/08 06:42:57;;;;;;;;;4.00;1.50;;;;;25.59;43.64;101014.06;4922218;28;45438;-44
2023/07/08 06:45:22;;;;;;;;;4.75;2.00;;;;;25.61;43.57;101021.91;4922289;28;45642;-45
2023/07/08 06:47:48;;;;;;;;;2.25;2.25;;;;;25.60;43.63;101026.38;4921718;28;48793;-44
2023/07/08 06:50:13;;;;;;;;;2.00;1.25;;;;;25.61;43.77;101020.09;4921845;28;45190;-40
2023/07/08 06:52:38;;;;;;;;;5.00;3.00;;;;;25.61;43.39;101025.41;4922156;28;45314;-43
2023/07/08 06:55:08;;;;;;;;;3.00;2.25;;;;;25.61;43.99;101030.72;4921736;28;47333;-42
2023/07/08 06:57:34;;;;;;;;;2.00;2.00;;;;;25.62;43.89;101021.81;4921488;28;46518;-43
2023/07/08 06:59:59;;;;;;;;;2.25;2.00;;;;;25.62;43.69;101027.09;4921424;28;45442;-44
2023/07/08 07:02:26;;;;;;;;;5.00;3.50;;;;;25.62;43.87;101027.09;4920964;28;45494;-46
2023/07/08 07:04:51;;;;;;;;;2.00;2.00;;;;;25.63;43.56;101034.09;4927835;28;45466;-44
2023/07/08 07:07:17;;;;;;;;;3.75;2.25;;;;;25.65;43.72;101041.09;4920739;28;46266;-44
2023/07/08 07:09:42;;;;;;;;;6.25;3.00;;;;;25.63;43.45;101035.91;4920695;28;45330;-43
2023/07/08 07:12:08;;;;;;;;;2.50;1.50;;;;;25.66;43.61;101037.47;4921072;28;45275;-45
2023/07/08 07:14:33;;;;;;;;;2.00;2.00;;;;;25.65;43.95;101039.28;4919715;28;45289;-44
2023/07/08 07:16:59;;;;;;;;;4.50;2.50;;;;;25.66;43.99;101040.13;4920442;28;46152;-43
2023/07/08 07:19:25;;;;;;;;;3.50;3.50;;;;;25.66;43.76;101040.13;4918170;28;45523;-44
2023/07/08 07:21:51;;;;;;;;;2.00;2.00;;;;;25.65;44.05;101036.63;4920718;28;45870;-44
2023/07/08 07:24:16;;;;;;;;;2.50;2.50;;;;;25.66;43.79;101040.13;4920762;28;45578;-47
2023/07/08 07:26:42;;;;;;;;;4.00;2.00;;;;;25.67;43.68;101040.03;4920824;28;45977;-42
2023/07/08 07:29:07;;;;;;;;;1.75;1.75;;;;;25.66;43.76;101033.03;4920608;28;45405;-41
2023/07/08 07:31:32;;;;;;;;;1.75;1.75;;;;;25.67;43.71;101039.16;4920658;28;45407;-42
2023/07/08 07:33:59;;;;;;;;;2.00;2.00;;;;;25.68;43.62;101039.06;4920792;28;45453;-44
2023/07/08 07:36:25;;;;;;;;;2.25;2.25;;;;;25.68;43.75;101033.75;4943056;28;48583;-45
2023/07/08 07:38:50;;;;;;;;;2.25;2.25;;;;;25.69;43.48;101047.88;4919945;28;56204;-45
2023/07/08 07:41:16;;;;;;;;;3.25;2.25;;;;;25.70;43.38;101044.25;4920297;28;45429;-44
2023/07/08 07:43:42;;;;;;;;;2.75;2.00;;;;;25.68;43.53;101040.88;4919605;28;45582;-44
2023/07/08 07:46:07;;;;;;;;;1.25;1.25;;;;;25.70;43.12;101044.25;4920243;28;46805;-45
2023/07/08 07:48:34;;;;;;;;;3.00;3.00;;;;;25.70;43.51;101049.56;4920305;28;45431;-43
2023/07/08 07:50:59;;;;;;;;;2.25;2.00;;;;;25.70;43.16;101044.25;4919381;28;45472;-45
2023/07/08 07:53:25;;;;;;;;;2.25;2.00;;;;;25.69;43.41;101038.09;4921150;28;45666;-42
2023/07/08 07:56:01;;;;;;;;;5.00;2.50;;;;;25.71;43.67;101052.09;4920842;28;46178;-42
2023/07/08 07:58:26;;;;;;;;;4.00;3.00;;;;;25.71;43.55;101051.25;4920883;28;45443;-43
2023/07/08 08:00:52;;;;;;;;;2.00;2.00;;;;;25.71;43.39;101054.75;4935234;28;45443;-40
2023/07/08 08:03:17;;;;;;;;;2.00;2.00;;;;;25.73;43.15;101054.66;4921102;28;45547;-43
2023/07/08 08:05:43;;;;;;;;;2.50;2.00;;;;;25.74;43.00;101059.00;4935667;28;47508;-45
2023/07/08 08:08:08;;;;;;;;;2.50;2.50;;;;;25.74;43.53;101056.34;4920780;28;45275;-46
2023/07/08 08:10:35;;;;;;;;;3.50;3.00;;;;;25.73;43.39;101059.97;4920980;28;45437;-44
2023/07/08 08:13:00;;;;;;;;;3.00;3.00;;;;;25.75;43.49;101064.19;4921098;28;45559;-44
2023/07/08 08:15:26;;;;;;;;;5.00;2.50;;;;;25.75;43.77;101064.19;4920733;28;45402;-47
2023/07/08 08:17:51;;;;;;;;;4.25;3.00;;;;;25.76;43.32;101068.53;4920833;28;45397;-47
2023/07/08 08:20:22;;;;;;;;;5.75;3.00;;;;;25.76;43.31;101062.38;4920919;28;45361;-46
2023/07/08 08:22:47;;;;;;;;;3.75;2.50;;;;;25.77;43.42;101066.72;4920990;28;45345;-45
2023/07/08 08:25:14;;;;;;;;;6.00;3.00;;;;;25.77;43.64;101070.25;4920737;28;45357;-46
2023/07/08 08:27:40;;;;;;;;;5.00;2.50;;;;;25.77;43.38;101069.38;4920564;28;45293;-44
2023/07/08 08:30:09;;;;;;;;;3.50;3.50;;;;;25.77;43.42;101074.69;4920680;28;45431;-49
2023/07/08 08:32:34;;;;;;;;;4.50;4.50;;;;;25.78;43.11;101084.34;4920870;28;45479;-48
2023/07/08 08:34:59;;;;;;;;;2.75;2.75;;;;;25.78;43.45;101087.00;4919763;28;65470;-47
2023/07/08 08:37:24;;;;;;;;;4.25;3.00;;;;;25.80;43.45;101087.75;4920029;28;50370;-48
2023/07/08 08:39:50;;;;;;;;;5.00;3.00;;;;;25.79;43.16;101091.34;4918491;28;58333;-48
2023/07/08 08:42:25;;;;;;;;;4.00;4.00;;;;;25.81;43.38;101094.75;4920837;28;45416;-48
2023/07/08 08:44:50;;;;;;;;;6.75;3.75;;;;;25.82;43.52;101095.59;4920218;28;45504;-45
2023/07/08 08:47:30;;;;;;;;;3.25;3.25;;;;;25.83;43.53;101091.97;4935195;28;45347;-45
2023/07/08 08:50:08;;;;;;;;;4.00;3.00;;;;;25.83;43.27;101087.53;4920337;28;45343;-48
2023/07/08 08:52:33;;;;;;;;;3.00;3.00;;;;;25.83;43.34;101090.19;4920330;28;45230;-48
2023/07/08 08:54:58;;;;;;;;;2.50;2.50;;;;;25.83;43.43;101092.84;4919494;28;46222;-44
2023/07/08 08:58:05;;;;;;;;;5.75;4.00;;;;;25.84;43.89;101086.56;4919971;28;45223;-46
2023/07/08 09:00:45;;;;;;;;;4.50;4.00;;;;;25.86;43.52;101087.28;4899909;28;45472;-51
2023/07/08 09:03:24;;;;;;;;;5.25;4.00;;;;;25.85;43.32;101088.22;4920310;28;45446;-49
2023/07/08 09:05:49;;;;;;;;;5.00;5.00;;;;;25.85;43.85;101087.41;4919935;28;45439;-47
2023/07/08 09:08:31;;;;;;;;;6.00;5.00;;;;;25.87;43.90;101083.66;4919936;28;51736;-48
2023/07/08 09:11:01;;;;;;;;;5.50;4.25;;;;;25.87;44.03;101096.94;4920015;28;45347;-51
2023/07/08 09:13:33;;;;;;;;;4.75;4.75;;;;;25.87;44.26;101088.97;4920166;28;45362;-48
2023/07/08 09:16:26;;;;;;;;;3.25;0.00;;;;;25.87;44.19;101091.63;4919456;28;46627;-43
2023/07/08 09:18:52;;;;;;;;;4.25;2.50;;;;;25.88;44.39;101095.97;4919867;28;45699;-46
2023/07/08 09:21:29;;;;;;;;;5.33;4.00;;;;;25.88;43.92;101095.16;4920138;28;45314;-50
2023/07/08 09:24:00;;;;;;;;;5.00;5.00;;;;;25.85;44.24;101085.56;4919805;28;45471;-51
2023/07/08 09:26:30;;;;;;;;;5.25;4.25;;;;;25.90;44.36;101082.59;4919705;28;46066;-49
2023/07/08 09:28:55;;;;;;;;;5.25;3.00;;;;;25.89;43.94;101088.88;4919365;28;45728;-47
2023/07/08 09:31:27;;;;;;;;;6.00;5.00;;;;;25.90;44.26;101085.25;4919638;28;45365;-46
2023/07/08 09:34:14;;;;;;;;;5.00;5.00;;;;;25.90;44.01;101087.91;4919873;28;45590;-48
2023/07/08 09:36:43;;;;;;;;;6.00;4.75;;;;;25.91;44.02;101098.41;4919231;28;46441;-49
2023/07/08 09:39:14;;;;;;;;;6.00;4.00;;;;;25.89;44.31;101095.03;4919493;28;45475;-45
2023/07/08 09:41:42;;;;;;;;;7.00;6.25;;;;;25.91;44.39;101086.94;4919565;28;45406;-48
2023/07/08 09:44:14;;;;;;;;;5.00;5.00;;;;;25.91;44.26;101089.59;4919512;28;45414;-48
2023/07/08 09:46:39;;;;;;;;;5.50;3.50;;;;;25.90;44.11;101083.44;4919228;28;45495;-49
2023/07/08 09:49:27;;;;;;;;;5.00;5.00;;;;;25.92;44.38;101094.81;4919358;28;45266;-47
2023/07/08 09:51:53;;;;;;;;;7.25;4.25;;;;;25.91;44.13;101085.13;4919418;28;45512;-42
2023/07/08 09:54:23;;;;;;;;;4.00;3.00;;;;;25.94;44.50;101084.06;4919873;28;45376;-50
2023/07/08 09:56:57;;;;;;;;;5.00;4.75;;;;;25.93;44.64;101083.22;4919412;28;45550;-47
2023/07/08 09:59:31;;;;;;;;;6.50;5.00;;;;;25.95;44.04;101083.09;4933752;28;45305;-50
2023/07/08 10:01:59;;;;;;;;;4.25;4.00;;;;;25.93;44.68;101075.25;4919320;28;45337;-47
2023/07/08 10:04:24;;;;;;;;;6.75;5.00;;;;;25.96;44.30;101070.69;4919345;28;45598;-51
2023/07/08 10:06:52;;;;;;;;;5.00;5.00;;;;;25.95;44.47;101069.81;4917698;28;64782;-49
2023/07/08 10:09:20;;;;;;;;;3.25;3.25;;;;;25.96;44.72;101071.50;4919055;28;45771;-49
2023/07/08 10:11:51;;;;;;;;;5.75;5.75;;;;;25.96;44.67;101065.38;4919064;28;45347;-45
2023/07/08 10:14:32;;;;;;;;;5.25;5.25;;;;;25.98;44.76;101074.03;4919318;28;45412;-46
2023/07/08 10:16:57;;;;;;;;;5.75;5.50;;;;;25.97;45.00;101067.03;4918812;28;45498;-47
2023/07/08 10:19:23;;;;;;;;;4.25;4.25;;;;;25.98;44.59;101074.91;4918823;28;45474;-43
2023/07/08 10:21:55;;;;;;;;;5.75;4.00;;;;;25.95;44.88;101069.81;4919092;28;45220;-42
2023/07/08 10:24:47;;;;;;;;;5.25;4.00;;;;;25.99;44.87;101070.44;4919137;28;45591;-50
2023/07/08 10:27:31;;;;;;;;;4.00;4.00;;;;;25.98;45.15;101074.03;4918636;28;46246;-45
2023/07/08 10:30:33;;;;;;;;;5.25;5.25;;;;;25.99;44.76;101071.28;4918496;28;45341;-50
2023/07/08 10:33:40;;;;;;;;;7.25;6.75;;;;;25.99;45.20;101076.59;4913376;28;45393;-46
2023/07/08 10:36:29;;;;;;;;;9.00;4.25;;;;;26.00;44.60;101077.44;4918866;28;45532;-47
2023/07/08 10:39:11;;;;;;;;;5.50;5.50;;;;;26.00;45.03;101075.66;4918371;28;45724;-46
2023/07/08 10:42:11;;;;;;;;;5.00;5.00;;;;;26.01;44.76;101074.69;4918476;28;45765;-50
2023/07/08 10:44:56;;;;;;;;;6.00;5.50;;;;;26.01;44.96;101080.00;4918617;28;45200;-48
2023/07/08 10:47:37;;;;;;;;;8.00;7.00;;;;;26.02;44.49;101078.16;4918971;28;45361;-43
2023/07/08 10:50:26;;;;;;;;;4.50;3.50;;;;;26.05;45.08;101080.59;4918338;28;45447;-48
2023/07/08 10:53:24;;;;;;;;;7.25;6.00;;;;;26.06;45.14;101077.00;4918670;28;45236;-44
2023/07/08 10:55:56;;;;;;;;;6.00;5.50;;;;;26.07;45.08;101081.34;4918742;28;45832;-46
2023/07/08 10:58:31;;;;;;;;;10.00;8.00;;;;;26.08;44.97;101081.22;4933583;28;45449;-50
2023/07/08 11:01:04;;;;;;;;;22.75;22.75;;;;;26.08;45.15;101085.66;4918165;28;46443;-46
2023/07/08 11:04:03;;;;;;;;;26.00;24.00;;;;;26.08;45.37;101085.66;4918238;28;45808;-48
2023/07/08 11:06:43;;;;;;;;;39.00;30.50;;;;;26.08;45.32;101083.00;4918162;28;45585;-48
2023/07/08 11:09:13;;;;;;;;;34.00;27.50;;;;;26.10;45.92;101075.81;4918352;28;45439;-47
2023/07/08 11:11:52;;;;;;;;;24.00;20.25;;;;;26.11;44.77;101072.19;4917752;28;47509;-49
2023/07/08 11:14:46;;;;;;;;;20.75;17.00;;;;;26.10;45.03;101067.84;4932924;28;45480;-47
2023/07/08 11:17:30;;;;;;;;;15.25;13.75;;;;;26.12;45.02;101068.56;4892348;28;45395;-49
2023/07/08 11:20:16;;;;;;;;;14.00;11.25;;;;;26.12;45.30;101065.91;4921937;28;45394;-50
2023/07/08 11:22:50;;;;;;;;;11.75;10.25;;;;;26.13;44.83;101064.97;4921289;28;45514;-46
2023/07/08 11:25:21;;;;;;;;;10.00;9.00;;;;;26.13;44.79;101059.66;4921079;28;45366;-48
2023/07/08 11:27:51;;;;;;;;;7.75;7.00;;;;;26.13;44.60;101064.13;4921395;28;45232;-48
2023/07/08 11:30:21;;;;;;;;;7.00;7.00;;;;;26.15;44.57;101057.72;4921289;28;45571;-48
2023/07/08 11:32:51;;;;;;;;;9.00;7.75;;;;;26.17;44.54;101063.78;4921139;28;46269;-52